sensor_id;sensor_type;location;lat;lon;timestamp;pressure;altitude;pressure_sealevel;temperature;humidity
73674;BME280;61975;48.660;10.164;2022-11-15T00:01:26;95498.97;;;7.19;100.00
73674;BME280;61975;48.660;10.164;2022-11-15T00:03:52;95498.97;;;7.19;100.00
73674;BME280;61975;48.660;10.164;2022-11-15T00:06:17;95496.56;;;7.17;100.00
73674;BME280;61975;48.660;10.164;2022-11-15T00:08:43;95497.03;;;7.19;100.00
73674;BME280;61975;48.660;10.164;2022-11-15T00:11:11;95483.22;;;7.19;100.00
73674;BME280;61975;48.660;10.164;2022-11-15T00:13:37;95486.34;;;7.18;100.00
73674;BME280;61975;48.660;10.164;2022-11-15T00:16:02;95493.44;;;7.19;100.00
73674;BME280;61975;48.660;10.164;2022-11-15T00:18:29;95492.69;;;7.18;100.00
73674;BME280;61975;48.660;10.164;2022-11-15T00:20:55;95498.09;;;7.15;100.00
73674;BME280;61975;48.660;10.164;2022-11-15T00:23:21;95498.09;;;7.15;100.00
73674;BME280;61975;48.660;10.164;2022-11-15T00:25:46;95490.28;;;7.17;100.00
73674;BME280;61975;48.660;10.164;2022-11-15T00:28:12;95493.81;;;7.17;100.00
73674;BME280;61975;48.660;10.164;2022-11-15T00:30:37;95492.69;;;7.18;100.00
73674;BME280;61975;48.660;10.164;2022-11-15T00:33:04;95486.34;;;7.18;100.00
73674;BME280;61975;48.660;10.164;2022-11-15T00:35:33;95482.41;;;7.19;100.00
73674;BME280;61975;48.660;10.164;2022-11-15T00:37:59;95492.22;;;7.16;100.00
73674;BME280;61975;48.660;10.164;2022-11-15T00:40:25;95488.97;;;7.11;100.00
73674;BME280;61975;48.660;10.164;2022-11-15T00:42:51;95481.06;;;7.09;100.00
73674;BME280;61975;48.660;10.164;2022-11-15T00:45:16;95479.09;;;7.10;100.00
73674;BME280;61975;48.660;10.164;2022-11-15T00:47:44;95478.75;;;7.11;100.00
73674;BME280;61975;48.660;10.164;2022-11-15T00:50:10;95475.97;;;7.11;100.00
73674;BME280;61975;48.660;10.164;2022-11-15T00:52:36;95468.47;;;7.12;100.00
73674;BME280;61975;48.660;10.164;2022-11-15T00:55:01;95468.06;;;7.10;100.00
73674;BME280;61975;48.660;10.164;2022-11-15T00:57:27;95470.81;;;7.10;100.00
73674;BME280;61975;48.660;10.164;2022-11-15T00:59:52;95462.53;;;7.10;100.00
73674;BME280;61975;48.660;10.164;2022-11-15T01:02:17;95456.56;;;7.08;100.00
73674;BME280;61975;48.660;10.164;2022-11-15T01:04:43;95455.03;;;7.10;100.00
73674;BME280;61975;48.660;10.164;2022-11-15T01:07:08;95447.94;;;7.09;100.00
73674;BME280;61975;48.660;10.164;2022-11-15T01:09:34;95455.00;;;7.07;100.00
73674;BME280;61975;48.660;10.164;2022-11-15T01:11:59;95447.38;;;7.00;100.00
73674;BME280;61975;48.660;10.164;2022-11-15T01:14:24;95453.69;;;7.01;100.00
73674;BME280;61975;48.660;10.164;2022-11-15T01:16:50;95450.56;;;7.02;100.00
73674;BME280;61975;48.660;10.164;2022-11-15T01:19:15;95447.38;;;7.00;100.00
73674;BME280;61975;48.660;10.164;2022-11-15T01:21:41;95436.34;;;7.00;100.00
73674;BME280;61975;48.660;10.164;2022-11-15T01:24:07;95444.22;;;7.02;100.00
73674;BME280;61975;48.660;10.164;2022-11-15T01:26:33;95441.47;;;7.02;100.00
73674;BME280;61975;48.660;10.164;2022-11-15T01:28:58;95436.38;;;7.04;100.00
73674;BME280;61975;48.660;10.164;2022-11-15T01:31:23;95415.91;;;7.05;100.00
73674;BME280;61975;48.660;10.164;2022-11-15T01:33:49;95418.25;;;7.03;100.00
73674;BME280;61975;48.660;10.164;2022-11-15T01:36:17;95423.75;;;7.03;100.00
73674;BME280;61975;48.660;10.164;2022-11-15T01:38:44;95422.16;;;7.02;100.00
73674;BME280;61975;48.660;10.164;2022-11-15T01:41:22;95422.53;;;7.00;100.00
73674;BME280;61975;48.660;10.164;2022-11-15T01:46:54;95411.50;;;7.00;100.00
73674;BME280;61975;48.660;10.164;2022-11-15T01:49:22;95409.53;;;7.01;100.00
73674;BME280;61975;48.660;10.164;2022-11-15T01:51:48;95400.47;;;7.00;100.00
73674;BME280;61975;48.660;10.164;2022-11-15T01:54:17;95408.34;;;7.02;100.00
73674;BME280;61975;48.660;10.164;2022-11-15T01:56:59;95409.47;;;6.97;100.00
73674;BME280;61975;48.660;10.164;2022-11-15T01:59:27;95412.59;;;6.96;100.00
73674;BME280;61975;48.660;10.164;2022-11-15T02:01:53;95417.63;;;6.90;100.00
73674;BME280;61975;48.660;10.164;2022-11-15T02:04:25;95412.75;;;6.84;100.00
73674;BME280;61975;48.660;10.164;2022-11-15T02:06:51;95400.84;;;6.80;100.00
73674;BME280;61975;48.660;10.164;2022-11-15T02:09:17;95399.63;;;6.77;100.00
73674;BME280;61975;48.660;10.164;2022-11-15T02:11:43;95401.56;;;6.77;100.00
73674;BME280;61975;48.660;10.164;2022-11-15T02:14:10;95395.63;;;6.75;100.00
73674;BME280;61975;48.660;10.164;2022-11-15T02:24:44;95393.75;;;6.60;100.00
73674;BME280;61975;48.660;10.164;2022-11-15T02:30:24;95390.84;;;6.53;100.00
73674;BME280;61975;48.660;10.164;2022-11-15T02:33:03;95386.44;;;6.48;100.00
73674;BME280;61975;48.660;10.164;2022-11-15T02:35:43;95385.56;;;6.44;100.00
73674;BME280;61975;48.660;10.164;2022-11-15T02:41:07;95382.28;;;6.39;100.00
73674;BME280;61975;48.660;10.164;2022-11-15T02:43:40;95378.31;;;6.36;100.00
73674;BME280;61975;48.660;10.164;2022-11-15T02:46:26;95377.06;;;6.34;100.00
73674;BME280;61975;48.660;10.164;2022-11-15T02:49:14;95371.94;;;6.32;100.00
73674;BME280;61975;48.660;10.164;2022-11-15T02:51:40;95371.84;;;6.29;100.00
73674;BME280;61975;48.660;10.164;2022-11-15T02:54:09;95371.84;;;6.29;100.00
73674;BME280;61975;48.660;10.164;2022-11-15T02:56:36;95368.56;;;6.23;100.00
73674;BME280;61975;48.660;10.164;2022-11-15T02:59:17;95372.34;;;6.15;100.00
73674;BME280;61975;48.660;10.164;2022-11-15T03:04:46;95380.22;;;5.98;100.00
73674;BME280;61975;48.660;10.164;2022-11-15T03:07:23;95371.19;;;5.97;100.00
73674;BME280;61975;48.660;10.164;2022-11-15T03:09:56;95371.91;;;5.94;100.00
73674;BME280;61975;48.660;10.164;2022-11-15T03:12:42;95363.19;;;5.92;100.00
73674;BME280;61975;48.660;10.164;2022-11-15T03:15:31;95364.00;;;5.93;100.00
73674;BME280;61975;48.660;10.164;2022-11-15T03:18:12;95351.38;;;5.92;100.00
73674;BME280;61975;48.660;10.164;2022-11-15T03:20:40;95349.34;;;5.89;100.00
73674;BME280;61975;48.660;10.164;2022-11-15T03:23:08;95352.09;;;5.89;100.00
73674;BME280;61975;48.660;10.164;2022-11-15T03:25:41;95350.41;;;5.84;100.00
73674;BME280;61975;48.660;10.164;2022-11-15T03:28:10;95349.63;;;5.84;100.00
73674;BME280;61975;48.660;10.164;2022-11-15T03:30:39;95348.84;;;5.83;100.00
73674;BME280;61975;48.660;10.164;2022-11-15T03:33:05;95356.28;;;5.83;100.00
73674;BME280;61975;48.660;10.164;2022-11-15T03:35:35;95355.13;;;5.84;100.00
73674;BME280;61975;48.660;10.164;2022-11-15T03:40:41;95359.75;;;5.64;100.00
73674;BME280;61975;48.660;10.164;2022-11-15T03:45:46;95354.09;;;5.57;100.00
73674;BME280;61975;48.660;10.164;2022-11-15T03:48:24;95346.28;;;5.59;100.00
73674;BME280;61975;48.660;10.164;2022-11-15T03:50:53;95350.97;;;5.58;100.00
73674;BME280;61975;48.660;10.164;2022-11-15T03:53:18;95356.84;;;5.57;100.00
73674;BME280;61975;48.660;10.164;2022-11-15T03:55:43;95350.09;;;5.54;100.00
73674;BME280;61975;48.660;10.164;2022-11-15T03:58:09;95354.44;;;5.55;100.00
73674;BME280;61975;48.660;10.164;2022-11-15T04:00:34;95349.41;;;5.57;100.00
73674;BME280;61975;48.660;10.164;2022-11-15T04:03:00;95349.81;;;5.59;100.00
73674;BME280;61975;48.660;10.164;2022-11-15T04:05:25;95351.09;;;5.62;100.00
73674;BME280;61975;48.660;10.164;2022-11-15T04:07:51;95347.63;;;5.65;100.00
73674;BME280;61975;48.660;10.164;2022-11-15T04:10:16;95338.97;;;5.66;100.00
73674;BME280;61975;48.660;10.164;2022-11-15T04:12:43;95333.09;;;5.68;100.00
73674;BME280;61975;48.660;10.164;2022-11-15T04:15:19;95342.16;;;5.68;100.00
73674;BME280;61975;48.660;10.164;2022-11-15T04:17:45;95338.97;;;5.66;100.00
73674;BME280;61975;48.660;10.164;2022-11-15T04:23:24;95333.84;;;5.65;100.00
73674;BME280;61975;48.660;10.164;2022-11-15T04:26:11;95331.81;;;5.62;100.00
73674;BME280;61975;48.660;10.164;2022-11-15T04:28:37;95337.31;;;5.62;100.00
73674;BME280;61975;48.660;10.164;2022-11-15T04:31:21;95342.00;;;5.61;100.00
73674;BME280;61975;48.660;10.164;2022-11-15T04:33:46;95334.81;;;5.57;100.00
73674;BME280;61975;48.660;10.164;2022-11-15T04:36:12;95336.34;;;5.54;100.00
73674;BME280;61975;48.660;10.164;2022-11-15T04:38:56;95329.97;;;5.50;100.00
73674;BME280;61975;48.660;10.164;2022-11-15T04:41:21;95332.25;;;5.48;100.00
73674;BME280;61975;48.660;10.164;2022-11-15T04:43:46;95335.38;;;5.47;100.00
73674;BME280;61975;48.660;10.164;2022-11-15T04:46:12;95324.31;;;5.43;100.00
73674;BME280;61975;48.660;10.164;2022-11-15T04:48:37;95325.00;;;5.40;100.00
73674;BME280;61975;48.660;10.164;2022-11-15T04:51:03;95322.25;;;5.40;100.00
73674;BME280;61975;48.660;10.164;2022-11-15T04:53:28;95313.53;;;5.38;100.00
73674;BME280;61975;48.660;10.164;2022-11-15T04:55:54;95310.72;;;5.35;100.00
73674;BME280;61975;48.660;10.164;2022-11-15T04:58:19;95307.16;;;5.34;100.00
73674;BME280;61975;48.660;10.164;2022-11-15T05:00:44;95309.50;;;5.32;100.00
73674;BME280;61975;48.660;10.164;2022-11-15T05:03:10;95305.13;;;5.31;100.00
73674;BME280;61975;48.660;10.164;2022-11-15T05:05:53;95302.84;;;5.33;100.00
73674;BME280;61975;48.660;10.164;2022-11-15T05:08:19;95304.41;;;5.34;100.00
73674;BME280;61975;48.660;10.164;2022-11-15T05:10:45;95305.56;;;5.33;100.00
73674;BME280;61975;48.660;10.164;2022-11-15T05:13:10;95301.25;;;5.32;100.00
73674;BME280;61975;48.660;10.164;2022-11-15T05:15:35;95296.88;;;5.31;100.00
73674;BME280;61975;48.660;10.164;2022-11-15T05:18:01;95294.94;;;5.32;100.00
73674;BME280;61975;48.660;10.164;2022-11-15T05:20:26;95290.31;;;5.36;100.00
73674;BME280;61975;48.660;10.164;2022-11-15T05:22:53;95293.16;;;5.39;100.00
73674;BME280;61975;48.660;10.164;2022-11-15T05:25:20;95300.69;;;5.42;100.00
73674;BME280;61975;48.660;10.164;2022-11-15T05:27:46;95293.22;;;5.43;100.00
73674;BME280;61975;48.660;10.164;2022-11-15T05:30:11;95287.34;;;5.44;100.00
73674;BME280;61975;48.660;10.164;2022-11-15T05:32:36;95288.94;;;5.45;100.00
73674;BME280;61975;48.660;10.164;2022-11-15T05:35:02;95279.53;;;5.46;100.00
73674;BME280;61975;48.660;10.164;2022-11-15T05:37:30;95279.91;;;5.45;100.00
73674;BME280;61975;48.660;10.164;2022-11-15T05:39:56;95280.31;;;5.47;100.00
73674;BME280;61975;48.660;10.164;2022-11-15T05:42:21;95286.28;;;5.49;100.00
73674;BME280;61975;48.660;10.164;2022-11-15T05:44:48;95282.72;;;5.48;100.00
73674;BME280;61975;48.660;10.164;2022-11-15T05:47:21;95271.34;;;5.50;100.00
73674;BME280;61975;48.660;10.164;2022-11-15T05:49:48;95278.81;;;5.49;100.00
73674;BME280;61975;48.660;10.164;2022-11-15T05:52:18;95273.31;;;5.49;100.00
73674;BME280;61975;48.660;10.164;2022-11-15T05:54:45;95274.91;;;5.50;100.00
73674;BME280;61975;48.660;10.164;2022-11-15T05:57:11;95268.94;;;5.48;100.00
73674;BME280;61975;48.660;10.164;2022-11-15T05:59:37;95270.13;;;5.47;100.00
73674;BME280;61975;48.660;10.164;2022-11-15T06:02:03;95275.63;;;5.47;100.00
73674;BME280;61975;48.660;10.164;2022-11-15T06:04:28;95268.53;;;5.46;100.00
73674;BME280;61975;48.660;10.164;2022-11-15T06:06:54;95266.91;;;5.45;100.00
73674;BME280;61975;48.660;10.164;2022-11-15T06:09:19;95270.84;;;5.44;100.00
73674;BME280;61975;48.660;10.164;2022-11-15T06:11:44;95272.41;;;5.45;100.00
73674;BME280;61975;48.660;10.164;2022-11-15T06:14:11;95269.25;;;5.43;100.00
73674;BME280;61975;48.660;10.164;2022-11-15T06:16:36;95270.41;;;5.42;100.00
73674;BME280;61975;48.660;10.164;2022-11-15T06:19:02;95274.75;;;5.43;100.00
73674;BME280;61975;48.660;10.164;2022-11-15T06:21:27;95272.34;;;5.42;100.00
73674;BME280;61975;48.660;10.164;2022-11-15T06:23:54;95272.34;;;5.42;100.00
73674;BME280;61975;48.660;10.164;2022-11-15T06:26:19;95274.75;;;5.43;100.00
73674;BME280;61975;48.660;10.164;2022-11-15T06:28:45;95271.63;;;5.45;100.00
73674;BME280;61975;48.660;10.164;2022-11-15T06:31:11;95274.75;;;5.43;100.00
73674;BME280;61975;48.660;10.164;2022-11-15T06:33:37;95287.81;;;5.46;100.00
73674;BME280;61975;48.660;10.164;2022-11-15T06:36:04;95275.63;;;5.47;100.00
73674;BME280;61975;48.660;10.164;2022-11-15T06:38:30;95276.84;;;5.50;100.00
73674;BME280;61975;48.660;10.164;2022-11-15T06:41:04;95276.94;;;5.53;100.00
73674;BME280;61975;48.660;10.164;2022-11-15T06:43:30;95278.16;;;5.56;100.00
73674;BME280;61975;48.660;10.164;2022-11-15T06:45:57;95284.91;;;5.58;100.00
73674;BME280;61975;48.660;10.164;2022-11-15T06:48:23;95279.84;;;5.60;100.00
73674;BME280;61975;48.660;10.164;2022-11-15T06:50:56;95285.78;;;5.62;100.00
73674;BME280;61975;48.660;10.164;2022-11-15T06:53:22;95287.75;;;5.62;100.00
73674;BME280;61975;48.660;10.164;2022-11-15T06:55:48;95292.59;;;5.68;100.00
73674;BME280;61975;48.660;10.164;2022-11-15T06:58:13;95273.41;;;5.72;100.00
73674;BME280;61975;48.660;10.164;2022-11-15T07:00:39;95276.22;;;5.75;100.00
73674;BME280;61975;48.660;10.164;2022-11-15T07:03:05;95273.22;;;5.81;100.00
73674;BME280;61975;48.660;10.164;2022-11-15T07:05:30;95276.88;;;5.85;100.00
73674;BME280;61975;48.660;10.164;2022-11-15T07:07:57;95266.63;;;5.85;100.00
73674;BME280;61975;48.660;10.164;2022-11-15T07:10:23;95258.34;;;5.85;100.00
73674;BME280;61975;48.660;10.164;2022-11-15T07:12:52;95266.97;;;5.84;100.00
73674;BME280;61975;48.660;10.164;2022-11-15T07:15:19;95272.94;;;5.86;100.00
73674;BME280;61975;48.660;10.164;2022-11-15T07:17:45;95275.38;;;5.91;100.00
73674;BME280;61975;48.660;10.164;2022-11-15T07:20:11;95271.13;;;5.93;100.00
73674;BME280;61975;48.660;10.164;2022-11-15T07:22:39;95268.06;;;5.98;100.00
73674;BME280;61975;48.660;10.164;2022-11-15T07:25:04;95269.66;;;5.99;100.00
73674;BME280;61975;48.660;10.164;2022-11-15T07:27:30;95272.88;;;6.01;100.00
73674;BME280;61975;48.660;10.164;2022-11-15T07:29:55;95267.41;;;6.05;100.00
73674;BME280;61975;48.660;10.164;2022-11-15T07:32:20;95262.72;;;6.05;100.00
73674;BME280;61975;48.660;10.164;2022-11-15T07:34:46;95261.97;;;6.08;100.00
73674;BME280;61975;48.660;10.164;2022-11-15T07:37:12;95260.81;;;6.09;100.00
73674;BME280;61975;48.660;10.164;2022-11-15T07:39:38;95255.75;;;6.11;100.00
73674;BME280;61975;48.660;10.164;2022-11-15T07:42:03;95249.50;;;6.14;100.00
73674;BME280;61975;48.660;10.164;2022-11-15T07:44:47;95253.50;;;6.17;100.00
73674;BME280;61975;48.660;10.164;2022-11-15T07:47:12;95252.31;;;6.18;100.00
73674;BME280;61975;48.660;10.164;2022-11-15T07:49:38;95255.16;;;6.21;100.00
73674;BME280;61975;48.660;10.164;2022-11-15T07:52:03;95251.31;;;6.26;100.00
73674;BME280;61975;48.660;10.164;2022-11-15T07:54:29;95246.28;;;6.31;100.00
73674;BME280;61975;48.660;10.164;2022-11-15T07:56:54;95247.53;;;6.34;100.00
73674;BME280;61975;48.660;10.164;2022-11-15T07:59:20;95247.56;;;6.37;100.00
73674;BME280;61975;48.660;10.164;2022-11-15T08:01:45;95246.13;;;6.43;100.00
73674;BME280;61975;48.660;10.164;2022-11-15T08:04:11;95234.72;;;6.45;100.00
73674;BME280;61975;48.660;10.164;2022-11-15T08:06:37;95236.75;;;6.48;100.00
73674;BME280;61975;48.660;10.164;2022-11-15T08:09:02;95229.78;;;6.54;100.00
73674;BME280;61975;48.660;10.164;2022-11-15T08:11:28;95236.56;;;6.60;100.00
73674;BME280;61975;48.660;10.164;2022-11-15T08:13:53;95235.09;;;6.66;100.00
73674;BME280;61975;48.660;10.164;2022-11-15T08:16:19;95225.75;;;6.74;100.00
73674;BME280;61975;48.660;10.164;2022-11-15T08:18:44;95223.47;;;6.79;100.00
73674;BME280;61975;48.660;10.164;2022-11-15T08:21:10;95220.06;;;6.86;100.00
73674;BME280;61975;48.660;10.164;2022-11-15T08:23:38;95223.34;;;6.95;100.00
73674;BME280;61975;48.660;10.164;2022-11-15T08:26:06;95211.28;;;7.03;100.00
73674;BME280;61975;48.660;10.164;2022-11-15T08:28:32;95205.50;;;7.11;100.00
73674;BME280;61975;48.660;10.164;2022-11-15T08:30:57;95196.09;;;7.16;100.00
73674;BME280;61975;48.660;10.164;2022-11-15T08:33:23;95194.66;;;7.25;100.00
73674;BME280;61975;48.660;10.164;2022-11-15T08:35:48;95185.34;;;7.37;100.00
73674;BME280;61975;48.660;10.164;2022-11-15T08:38:14;95181.91;;;7.47;100.00
73674;BME280;61975;48.660;10.164;2022-11-15T08:40:39;95179.75;;;7.59;100.00
73674;BME280;61975;48.660;10.164;2022-11-15T08:43:05;95171.53;;;7.66;100.00
73674;BME280;61975;48.660;10.164;2022-11-15T08:45:32;95179.53;;;7.75;100.00
73674;BME280;61975;48.660;10.164;2022-11-15T08:48:01;95179.25;;;7.83;100.00
73674;BME280;61975;48.660;10.164;2022-11-15T08:50:26;95174.19;;;7.92;100.00
73674;BME280;61975;48.660;10.164;2022-11-15T08:52:52;95176.06;;;7.85;100.00
73674;BME280;61975;48.660;10.164;2022-11-15T08:55:17;95185.53;;;7.80;100.00
73674;BME280;61975;48.660;10.164;2022-11-15T08:57:42;95187.47;;;7.80;100.00
73674;BME280;61975;48.660;10.164;2022-11-15T09:00:08;95188.00;;;7.89;100.00
73674;BME280;61975;48.660;10.164;2022-11-15T09:02:34;95185.25;;;7.92;100.00
73674;BME280;61975;48.660;10.164;2022-11-15T09:04:59;95195.69;;;8.06;100.00
73674;BME280;61975;48.660;10.164;2022-11-15T09:07:25;95194.25;;;8.19;100.00
73674;BME280;61975;48.660;10.164;2022-11-15T09:09:50;95197.59;;;8.35;100.00
73674;BME280;61975;48.660;10.164;2022-11-15T09:12:15;95200.81;;;8.40;100.00
73674;BME280;61975;48.660;10.164;2022-11-15T09:14:41;95194.47;;;8.36;100.00
73674;BME280;61975;48.660;10.164;2022-11-15T09:17:07;95183.72;;;8.31;100.00
73674;BME280;61975;48.660;10.164;2022-11-15T09:19:33;95191.25;;;8.31;100.00
73674;BME280;61975;48.660;10.164;2022-11-15T09:21:59;95186.56;;;8.38;100.00
73674;BME280;61975;48.660;10.164;2022-11-15T09:24:24;95176.44;;;8.53;100.00
73674;BME280;61975;48.660;10.164;2022-11-15T09:26:50;95169.44;;;8.66;100.00
73674;BME280;61975;48.660;10.164;2022-11-15T09:29:17;95172.00;;;8.89;100.00
73674;BME280;61975;48.660;10.164;2022-11-15T09:31:42;95169.78;;;9.08;100.00
73674;BME280;61975;48.660;10.164;2022-11-15T09:34:07;95165.09;;;9.16;100.00
73674;BME280;61975;48.660;10.164;2022-11-15T09:36:33;95165.56;;;9.28;100.00
73674;BME280;61975;48.660;10.164;2022-11-15T09:38:58;95169.22;;;9.43;100.00
73674;BME280;61975;48.660;10.164;2022-11-15T09:49:55;95156.69;;;9.73;97.67
73674;BME280;61975;48.660;10.164;2022-11-15T09:52:22;95164.59;;;9.71;97.40
73674;BME280;61975;48.660;10.164;2022-11-15T09:54:50;95146.34;;;9.67;97.07
73674;BME280;61975;48.660;10.164;2022-11-15T10:05:19;95139.72;;;9.89;95.31
73674;BME280;61975;48.660;10.164;2022-11-15T10:10:52;95131.94;;;10.22;91.13
73674;BME280;61975;48.660;10.164;2022-11-15T10:13:25;95132.34;;;10.28;88.56
73674;BME280;61975;48.660;10.164;2022-11-15T10:15:53;95133.94;;;10.39;88.61
73674;BME280;61975;48.660;10.164;2022-11-15T10:18:34;95121.66;;;10.40;86.58
73674;BME280;61975;48.660;10.164;2022-11-15T10:21:12;95125.63;;;10.53;87.14
73674;BME280;61975;48.660;10.164;2022-11-15T10:23:40;95114.94;;;10.62;87.29
73674;BME280;61975;48.660;10.164;2022-11-15T10:26:08;95106.59;;;10.80;87.65
73674;BME280;61975;48.660;10.164;2022-11-15T10:28:36;95108.97;;;10.95;87.10
73674;BME280;61975;48.660;10.164;2022-11-15T10:31:02;95103.78;;;11.08;84.65
73674;BME280;61975;48.660;10.164;2022-11-15T10:33:38;95093.47;;;11.15;83.04
73674;BME280;61975;48.660;10.164;2022-11-15T10:46:33;95080.38;;;11.23;81.39
73674;BME280;61975;48.660;10.164;2022-11-15T10:49:20;95076.78;;;11.19;80.52
73674;BME280;61975;48.660;10.164;2022-11-15T10:51:52;95062.47;;;11.27;81.97
73674;BME280;61975;48.660;10.164;2022-11-15T10:54:29;95058.44;;;11.46;81.27
73674;BME280;61975;48.660;10.164;2022-11-15T10:56:58;95048.47;;;11.59;79.83
73674;BME280;61975;48.660;10.164;2022-11-15T10:59:29;95051.94;;;11.84;78.34
73674;BME280;61975;48.660;10.164;2022-11-15T11:01:57;95051.03;;;12.05;76.03
73674;BME280;61975;48.660;10.164;2022-11-15T11:04:23;95045.41;;;12.15;75.51
73674;BME280;61975;48.660;10.164;2022-11-15T11:09:34;95049.88;;;12.53;73.74
73674;BME280;61975;48.660;10.164;2022-11-15T11:12:01;95051.00;;;12.63;71.51
73674;BME280;61975;48.660;10.164;2022-11-15T11:14:33;95053.84;;;12.56;70.24
73674;BME280;61975;48.660;10.164;2022-11-15T11:17:03;95052.94;;;12.69;68.44
73674;BME280;61975;48.660;10.164;2022-11-15T11:27:33;95029.38;;;12.77;62.60
73674;BME280;61975;48.660;10.164;2022-11-15T11:30:17;95025.81;;;12.77;65.09
73674;BME280;61975;48.660;10.164;2022-11-15T11:32:49;95028.00;;;12.55;65.24
73674;BME280;61975;48.660;10.164;2022-11-15T11:35:24;95031.53;;;12.59;65.62
73674;BME280;61975;48.660;10.164;2022-11-15T11:40:56;95033.53;;;12.59;65.99
73674;BME280;61975;48.660;10.164;2022-11-15T11:48:44;95034.28;;;12.63;62.30
73674;BME280;61975;48.660;10.164;2022-11-15T11:51:34;95031.84;;;12.72;60.60
73674;BME280;61975;48.660;10.164;2022-11-15T11:54:21;95020.16;;;12.87;60.05
73674;BME280;61975;48.660;10.164;2022-11-15T11:56:48;95016.00;;;13.06;59.32
73674;BME280;61975;48.660;10.164;2022-11-15T11:59:25;95009.41;;;13.26;59.71
73674;BME280;61975;48.660;10.164;2022-11-15T12:01:52;95000.09;;;13.40;58.85
73674;BME280;61975;48.660;10.164;2022-11-15T12:04:21;94992.19;;;13.65;57.55
73674;BME280;61975;48.660;10.164;2022-11-15T12:09:36;94991.44;;;13.91;57.97
73674;BME280;61975;48.660;10.164;2022-11-15T12:12:18;94988.41;;;14.09;57.41
73674;BME280;61975;48.660;10.164;2022-11-15T12:14:51;94993.88;;;14.16;55.93
73674;BME280;61975;48.660;10.164;2022-11-15T12:17:23;94994.19;;;14.21;56.37
73674;BME280;61975;48.660;10.164;2022-11-15T12:19:48;94993.00;;;14.22;56.37
73674;BME280;61975;48.660;10.164;2022-11-15T12:25:15;94990.34;;;14.38;54.94
73674;BME280;61975;48.660;10.164;2022-11-15T12:27:48;94995.03;;;14.45;54.75
73674;BME280;61975;48.660;10.164;2022-11-15T12:30:17;94995.84;;;14.45;54.17
73674;BME280;61975;48.660;10.164;2022-11-15T12:32:58;94997.41;;;14.46;53.68
73674;BME280;61975;48.660;10.164;2022-11-15T12:37:58;94983.31;;;14.53;55.03
73674;BME280;61975;48.660;10.164;2022-11-15T12:40:26;94976.84;;;14.60;55.42
73674;BME280;61975;48.660;10.164;2022-11-15T12:45:42;94980.41;;;14.60;55.58
73674;BME280;61975;48.660;10.164;2022-11-15T12:58:48;94976.25;;;15.14;54.77
73674;BME280;61975;48.660;10.164;2022-11-15T13:06:46;94950.41;;;15.26;54.39
73674;BME280;61975;48.660;10.164;2022-11-15T13:14:54;94961.44;;;14.94;55.41
73674;BME280;61975;48.660;10.164;2022-11-15T13:19:46;94947.47;;;14.71;55.92
73674;BME280;61975;48.660;10.164;2022-11-15T13:22:12;94947.56;;;14.68;56.21
73674;BME280;61975;48.660;10.164;2022-11-15T13:24:57;94946.97;;;14.57;56.39
73674;BME280;61975;48.660;10.164;2022-11-15T13:27:22;94947.13;;;14.46;56.28
73674;BME280;61975;48.660;10.164;2022-11-15T13:29:48;94943.38;;;14.33;57.43
73674;BME280;61975;48.660;10.164;2022-11-15T13:32:15;94947.50;;;14.25;58.14
73674;BME280;61975;48.660;10.164;2022-11-15T13:34:45;94946.00;;;14.17;57.91
73674;BME280;61975;48.660;10.164;2022-11-15T13:39:48;94942.69;;;13.99;58.83
73674;BME280;61975;48.660;10.164;2022-11-15T13:42:15;94950.75;;;13.94;60.08
73674;BME280;61975;48.660;10.164;2022-11-15T13:44:55;94946.78;;;13.91;59.29
73674;BME280;61975;48.660;10.164;2022-11-15T13:47:21;94941.69;;;13.86;59.14
73674;BME280;61975;48.660;10.164;2022-11-15T13:49:46;94943.75;;;13.82;58.83
73674;BME280;61975;48.660;10.164;2022-11-15T13:52:14;94939.84;;;13.76;59.23
73674;BME280;61975;48.660;10.164;2022-11-15T13:54:56;94937.16;;;13.69;60.78
73674;BME280;61975;48.660;10.164;2022-11-15T13:57:26;94924.25;;;13.78;58.99
73674;BME280;61975;48.660;10.164;2022-11-15T13:59:55;94915.38;;;13.87;60.07
73674;BME280;61975;48.660;10.164;2022-11-15T14:02:25;94909.81;;;14.10;59.37
73674;BME280;61975;48.660;10.164;2022-11-15T14:04:55;94910.69;;;14.53;57.82
73674;BME280;61975;48.660;10.164;2022-11-15T14:07:23;94913.50;;;15.15;56.39
73674;BME280;61975;48.660;10.164;2022-11-15T14:09:49;94902.19;;;15.22;55.02
73674;BME280;61975;48.660;10.164;2022-11-15T14:14:46;94888.44;;;14.92;55.63
73674;BME280;61975;48.660;10.164;2022-11-15T14:17:34;94896.97;;;14.62;57.06
73674;BME280;61975;48.660;10.164;2022-11-15T14:20:01;94890.69;;;14.35;58.30
73674;BME280;61975;48.660;10.164;2022-11-15T14:22:28;94891.88;;;14.11;58.82
73674;BME280;61975;48.660;10.164;2022-11-15T14:27:32;94890.06;;;13.74;60.91
73674;BME280;61975;48.660;10.164;2022-11-15T14:29:58;94891.09;;;13.57;61.33
73674;BME280;61975;48.660;10.164;2022-11-15T14:32:25;94895.44;;;13.32;62.71
73674;BME280;61975;48.660;10.164;2022-11-15T14:34:59;94898.81;;;13.20;63.44
73674;BME280;61975;48.660;10.164;2022-11-15T14:37:32;94898.28;;;12.98;64.54
73674;BME280;61975;48.660;10.164;2022-11-15T14:40:03;94891.25;;;12.83;66.54
73674;BME280;61975;48.660;10.164;2022-11-15T14:42:29;94883.84;;;12.70;68.27
73674;BME280;61975;48.660;10.164;2022-11-15T14:44:55;94880.44;;;12.55;69.71
73674;BME280;61975;48.660;10.164;2022-11-15T14:47:20;94890.13;;;12.40;71.09
73674;BME280;61975;48.660;10.164;2022-11-15T14:49:46;94882.72;;;12.27;72.87
73674;BME280;61975;48.660;10.164;2022-11-15T14:54:53;94873.81;;;12.02;74.35
73674;BME280;61975;48.660;10.164;2022-11-15T14:57:18;94884.22;;;11.94;74.29
73674;BME280;61975;48.660;10.164;2022-11-15T14:59:43;94873.66;;;11.75;76.05